createdAt,value
2018-04-23T00:01:09.559Z,12.97
2018-04-23T00:03:37.891Z,13.63
2018-04-23T00:06:06.241Z,12.77
2018-04-23T00:08:34.569Z,13.10
2018-04-23T00:11:02.933Z,12.50
2018-04-23T00:13:31.260Z,12.00
2018-04-23T00:15:59.598Z,13.33
2018-04-23T00:18:27.942Z,13.20
2018-04-23T00:20:56.313Z,13.77
2018-04-23T00:23:24.641Z,13.13
2018-04-23T00:25:52.977Z,14.87
2018-04-23T00:28:21.294Z,14.57
2018-04-23T00:30:49.645Z,15.23
2018-04-23T00:33:17.963Z,14.40
2018-04-23T00:35:46.302Z,15.63
2018-04-23T00:38:14.663Z,14.50
2018-04-23T00:40:42.986Z,14.97
2018-04-23T00:43:11.344Z,14.37
2018-04-23T00:45:39.680Z,14.60
2018-04-23T00:48:08.033Z,14.77
2018-04-23T00:50:36.366Z,15.63
2018-04-23T00:53:16.483Z,14.00
2018-04-23T00:55:44.806Z,15.90
2018-04-23T00:58:13.151Z,15.30
2018-04-23T01:00:41.500Z,16.93
2018-04-23T01:03:09.848Z,17.33
2018-04-23T01:05:38.170Z,14.43
2018-04-23T01:08:06.524Z,16.20
2018-04-23T01:10:34.859Z,13.97
2018-04-23T01:13:03.203Z,15.53
2018-04-23T01:15:31.543Z,14.97
2018-04-23T01:17:59.909Z,15.37
2018-04-23T01:20:28.230Z,15.00
2018-04-23T01:22:56.588Z,14.67
2018-04-23T01:25:24.927Z,15.37
2018-04-23T01:27:53.460Z,15.93
2018-04-23T01:30:21.857Z,14.77
2018-04-23T01:32:50.188Z,15.67
2018-04-23T01:35:18.583Z,17.53
2018-04-23T01:37:46.917Z,15.37
2018-04-23T01:40:15.261Z,17.77
2018-04-23T01:42:43.569Z,16.97
2018-04-23T01:45:11.919Z,16.73
2018-04-23T01:47:40.243Z,18.33
2018-04-23T01:50:08.623Z,17.20
2018-04-23T01:52:37.834Z,18.77
2018-04-23T01:55:06.176Z,17.97
2018-04-23T01:57:34.503Z,17.03
2018-04-23T02:00:02.882Z,17.53
2018-04-23T02:02:33.069Z,16.73
2018-04-23T02:05:01.409Z,16.80
2018-04-23T02:07:29.745Z,16.10
2018-04-23T02:09:59.149Z,19.30
2018-04-23T02:12:27.468Z,19.07
2018-04-23T02:14:55.787Z,18.40
2018-04-23T02:17:24.145Z,19.10
2018-04-23T02:19:52.464Z,18.87
2018-04-23T02:22:20.817Z,18.63
2018-04-23T02:24:49.126Z,21.00
2018-04-23T02:27:17.463Z,21.73
2018-04-23T02:29:45.785Z,20.40
2018-04-23T02:32:14.120Z,21.13
2018-04-23T02:34:42.443Z,20.73
2018-04-23T02:37:10.777Z,21.60
2018-04-23T02:39:39.118Z,21.77
2018-04-23T02:42:07.459Z,21.50
2018-04-23T02:44:35.784Z,20.53
2018-04-23T02:47:04.126Z,20.03
2018-04-23T02:49:32.447Z,20.57
2018-04-23T02:52:00.797Z,21.10
2018-04-23T02:54:29.225Z,20.63
2018-04-23T02:56:57.574Z,23.23
2018-04-23T02:59:25.904Z,22.37
2018-04-23T03:01:54.223Z,20.23
2018-04-23T03:04:22.591Z,23.60
2018-04-23T03:06:50.918Z,22.30
2018-04-23T03:09:19.262Z,21.80
2018-04-23T03:11:47.590Z,21.50
2018-04-23T03:14:15.973Z,19.43
2018-04-23T03:16:44.283Z,29.37
2018-04-23T03:19:12.626Z,23.53
2018-04-23T03:21:40.944Z,25.87
2018-04-23T03:24:09.275Z,24.50
2018-04-23T03:26:37.621Z,23.97
2018-04-23T03:29:05.956Z,24.03
2018-04-23T03:31:34.284Z,22.37
2018-04-23T03:34:02.649Z,24.03
2018-04-23T03:36:31.041Z,25.10
2018-04-23T03:38:59.378Z,24.83
2018-04-23T03:41:27.709Z,26.47
2018-04-23T03:43:56.051Z,23.77
2018-04-23T03:46:24.384Z,22.77
2018-04-23T03:48:52.705Z,23.93
2018-04-23T03:51:21.032Z,24.83
2018-04-23T03:53:49.373Z,24.37
2018-04-23T03:56:18.211Z,24.37
2018-04-23T03:58:46.532Z,23.73
2018-04-23T04:01:14.874Z,25.60
2018-04-23T04:03:43.288Z,23.87
2018-04-23T04:06:11.626Z,25.33
2018-04-23T04:08:39.971Z,25.13
2018-04-23T04:11:08.316Z,24.67
2018-04-23T04:13:48.510Z,24.50
2018-04-23T04:16:28.601Z,24.60
2018-04-23T04:18:56.948Z,25.03
2018-04-23T04:21:25.300Z,24.40
2018-04-23T04:23:53.672Z,23.80
2018-04-23T04:26:22.003Z,17.57
2018-04-23T04:28:51.161Z,19.77
2018-04-23T04:31:19.501Z,20.73
2018-04-23T04:33:47.834Z,20.70
2018-04-23T04:36:16.281Z,19.27
2018-04-23T04:38:44.594Z,17.20
2018-04-23T04:41:12.921Z,17.87
2018-04-23T04:43:41.265Z,15.83
2018-04-23T04:46:10.034Z,16.80
2018-04-23T04:48:42.917Z,14.73
2018-04-23T04:51:11.250Z,18.00
2018-04-23T04:53:39.659Z,15.93
2018-04-23T04:56:07.995Z,20.53
2018-04-23T04:58:36.334Z,15.70
2018-04-23T05:01:04.660Z,17.17
2018-04-23T05:03:33.073Z,14.23
2018-04-23T05:06:01.404Z,14.37
2018-04-23T05:08:29.840Z,14.53
2018-04-23T05:10:58.185Z,13.30
2018-04-23T05:13:26.536Z,15.70
2018-04-23T05:15:54.856Z,14.77
2018-04-23T05:18:23.183Z,13.97
2018-04-23T05:20:51.633Z,12.47
2018-04-23T05:23:20.032Z,13.30
2018-04-23T05:25:48.433Z,13.70
2018-04-23T05:28:16.789Z,13.33
2018-04-23T05:30:45.372Z,14.03
2018-04-23T05:33:13.788Z,12.43
2018-04-23T05:35:42.116Z,12.07
2018-04-23T05:38:10.438Z,12.63
2018-04-23T05:40:38.823Z,12.37
2018-04-23T05:43:07.257Z,24.23
2018-04-23T05:45:35.601Z,13.37
2018-04-23T05:48:03.954Z,11.73
2018-04-23T05:50:32.287Z,10.70
2018-04-23T05:53:00.621Z,11.67
2018-04-23T05:55:29.002Z,11.80
2018-04-23T05:57:57.326Z,11.33
2018-04-23T06:00:25.663Z,12.97
2018-04-23T06:02:54.003Z,11.27
2018-04-23T06:05:22.370Z,12.30
2018-04-23T06:07:50.688Z,11.40
2018-04-23T06:10:19.025Z,12.17
2018-04-23T06:12:47.369Z,12.30
2018-04-23T06:15:15.707Z,13.53
2018-04-23T06:17:44.036Z,10.47
2018-04-23T06:20:12.375Z,14.13
2018-04-23T06:22:40.720Z,12.40
2018-04-23T06:25:09.088Z,10.67
2018-04-23T06:27:37.427Z,14.87
2018-04-23T06:30:05.760Z,10.67
2018-04-23T06:32:34.112Z,10.07
2018-04-23T06:35:02.446Z,13.80
2018-04-23T06:37:30.969Z,10.10
2018-04-23T06:39:59.329Z,13.40
2018-04-23T06:42:27.681Z,10.27
2018-04-23T06:44:56.031Z,10.87
2018-04-23T06:47:24.380Z,8.63
2018-04-23T06:49:52.807Z,11.43
2018-04-23T06:52:21.126Z,8.23
2018-04-23T06:54:49.485Z,13.03
2018-04-23T06:57:17.828Z,9.80
2018-04-23T06:59:46.139Z,7.03
2018-04-23T07:02:14.514Z,9.93
2018-04-23T07:04:42.916Z,8.57
2018-04-23T07:07:11.180Z,7.73
2018-04-23T07:09:39.517Z,7.67
2018-04-23T07:12:07.841Z,11.10
2018-04-23T07:14:36.153Z,14.63
2018-04-23T07:17:04.482Z,8.37
2018-04-23T07:19:32.797Z,12.90
2018-04-23T07:22:01.128Z,10.53
2018-04-23T07:24:29.473Z,11.93
2018-04-23T07:26:57.791Z,12.53
2018-04-23T07:29:26.141Z,8.37
2018-04-23T07:31:54.467Z,13.93
2018-04-23T07:34:22.780Z,8.07
2018-04-23T07:36:51.104Z,9.00
2018-04-23T07:39:19.444Z,10.80
2018-04-23T07:41:47.769Z,7.63
2018-04-23T07:44:16.144Z,10.27
2018-04-23T07:46:44.482Z,9.97
2018-04-23T07:49:12.782Z,10.20
2018-04-23T07:51:41.139Z,13.43
2018-04-23T07:54:09.557Z,11.23
2018-04-23T07:56:37.864Z,11.73
2018-04-23T07:59:06.191Z,13.03
2018-04-23T08:01:34.515Z,8.80
2018-04-23T08:04:02.850Z,11.30
2018-04-23T08:06:31.194Z,8.27
2018-04-23T08:08:59.572Z,8.10
2018-04-23T08:11:27.947Z,9.23
2018-04-23T08:13:56.292Z,14.30
2018-04-23T08:16:24.716Z,12.07
2018-04-23T08:18:53.093Z,12.33
2018-04-23T08:21:21.422Z,9.30
2018-04-23T08:23:49.772Z,8.90
2018-04-23T08:26:18.138Z,11.20
2018-04-23T08:28:46.525Z,9.67
2018-04-23T08:31:14.877Z,11.37
2018-04-23T08:33:43.244Z,13.53
2018-04-23T08:36:11.592Z,18.03
2018-04-23T08:38:39.989Z,14.07
2018-04-23T08:41:08.328Z,22.83
2018-04-23T08:43:36.671Z,10.43
2018-04-23T08:46:05.004Z,11.27
2018-04-23T08:48:33.359Z,12.73
2018-04-23T08:51:01.681Z,16.57
2018-04-23T08:53:30.033Z,11.13
2018-04-23T08:55:58.381Z,11.50
2018-04-23T08:58:26.707Z,20.13
2018-04-23T09:00:55.047Z,13.10
2018-04-23T09:03:23.404Z,12.20
2018-04-23T09:05:52.449Z,13.90
2018-04-23T09:08:20.819Z,13.00
2018-04-23T09:10:49.388Z,14.53
2018-04-23T09:13:18.227Z,15.63
2018-04-23T09:15:46.748Z,12.97
2018-04-23T09:18:15.071Z,10.60
2018-04-23T09:20:43.430Z,12.00
2018-04-23T09:23:11.772Z,11.10
2018-04-23T09:25:40.112Z,17.07
2018-04-23T09:28:10.518Z,14.03
2018-04-23T09:30:38.869Z,12.97
2018-04-23T09:33:07.199Z,14.07
2018-04-23T09:35:35.550Z,14.37
2018-04-23T09:38:03.887Z,21.93
2018-04-23T09:40:32.220Z,13.00
2018-04-23T09:43:00.552Z,14.80
2018-04-23T09:45:28.879Z,14.73
2018-04-23T09:47:57.224Z,14.73
2018-04-23T09:50:25.543Z,15.97
2018-04-23T09:52:53.891Z,17.40
2018-04-23T09:55:22.220Z,11.63
2018-04-23T09:57:50.565Z,13.97
2018-04-23T10:00:24.529Z,15.97
2018-04-23T10:02:52.977Z,13.23
2018-04-23T10:05:21.294Z,14.13
2018-04-23T10:07:49.647Z,12.40
2018-04-23T10:10:18.002Z,13.07
2018-04-23T10:12:46.347Z,15.60
2018-04-23T10:15:14.685Z,16.30
2018-04-23T10:17:45.746Z,13.83
2018-04-23T10:20:14.099Z,16.50
2018-04-23T10:22:42.416Z,11.10
2018-04-23T10:25:10.758Z,12.07
2018-04-23T10:27:39.102Z,14.67
2018-04-23T10:30:07.433Z,11.37
2018-04-23T10:32:35.763Z,18.67
2018-04-23T10:35:04.124Z,11.27
2018-04-23T10:37:32.457Z,13.13
2018-04-23T10:40:00.808Z,10.47
2018-04-23T10:42:29.141Z,13.93
2018-04-23T10:44:57.595Z,14.47
2018-04-23T10:47:25.924Z,12.93
2018-04-23T10:49:54.278Z,14.53
2018-04-23T10:52:22.605Z,11.07
2018-04-23T10:54:50.977Z,15.37
2018-04-23T10:57:19.301Z,11.30
2018-04-23T10:59:47.644Z,10.37
2018-04-23T11:02:15.987Z,12.83
2018-04-23T11:04:44.325Z,16.03
2018-04-23T11:07:12.663Z,13.70
2018-04-23T11:09:41.007Z,10.40
2018-04-23T11:12:09.326Z,11.63
2018-04-23T11:14:37.674Z,9.53
2018-04-23T11:17:06.014Z,11.40
2018-04-23T11:19:34.341Z,12.60
2018-04-23T11:22:02.685Z,14.90
2018-04-23T11:24:31.032Z,10.87
2018-04-23T11:26:59.380Z,12.33
2018-04-23T11:29:27.706Z,12.70
2018-04-23T11:31:56.044Z,9.90
2018-04-23T11:34:24.376Z,12.53
2018-04-23T11:36:52.703Z,10.77
2018-04-23T11:39:21.020Z,17.77
2018-04-23T11:41:49.379Z,9.73
2018-04-23T11:44:17.691Z,9.40
2018-04-23T11:46:46.033Z,10.47
2018-04-23T11:49:14.352Z,12.10
2018-04-23T11:51:42.671Z,14.17
2018-04-23T11:54:11.009Z,17.53
2018-04-23T11:56:39.354Z,12.40
2018-04-23T11:59:07.697Z,13.97
2018-04-23T12:01:36.013Z,9.73
2018-04-23T12:04:04.337Z,15.87
2018-04-23T12:06:32.701Z,12.83
2018-04-23T12:09:01.051Z,12.90
2018-04-23T12:11:29.369Z,11.00
2018-04-23T12:13:57.733Z,14.20
2018-04-23T12:16:26.045Z,14.43
2018-04-23T12:18:54.373Z,11.60
2018-04-23T12:21:22.696Z,13.70
2018-04-23T12:23:51.028Z,12.53
2018-04-23T12:26:19.365Z,11.37
2018-04-23T12:28:47.707Z,14.07
2018-04-23T12:31:16.071Z,9.13
2018-04-23T12:33:44.400Z,12.83
2018-04-23T12:36:12.776Z,13.57
2018-04-23T12:38:41.167Z,13.10
2018-04-23T12:41:09.490Z,10.80
2018-04-23T12:43:37.808Z,16.60
2018-04-23T12:46:06.245Z,15.00
2018-04-23T12:48:34.499Z,14.50
2018-04-23T12:51:03.830Z,13.37
2018-04-23T12:53:32.167Z,20.10
2018-04-23T12:56:00.572Z,14.03
2018-04-23T12:58:28.940Z,8.63
2018-04-23T13:00:57.259Z,10.90
2018-04-23T13:03:25.594Z,9.93
2018-04-23T13:05:53.955Z,13.73
2018-04-23T13:08:22.308Z,11.13
2018-04-23T13:10:50.656Z,12.87
2018-04-23T13:13:18.970Z,11.60
2018-04-23T13:15:47.303Z,9.27
2018-04-23T13:18:15.669Z,13.50
2018-04-23T13:20:43.999Z,14.87
2018-04-23T13:23:12.637Z,13.47
2018-04-23T13:25:41.339Z,14.57
2018-04-23T13:28:09.680Z,9.63
2018-04-23T13:30:38.033Z,10.07
2018-04-23T13:33:06.383Z,20.43
2018-04-23T13:35:34.720Z,14.50
2018-04-23T13:38:03.069Z,18.13
2018-04-23T13:40:31.413Z,11.17
2018-04-23T13:42:59.775Z,15.87
2018-04-23T13:45:28.117Z,14.23
2018-04-23T13:47:56.475Z,14.97
2018-04-23T13:50:24.832Z,14.83
2018-04-23T13:52:53.197Z,14.87
2018-04-23T13:55:21.540Z,11.07
2018-04-23T13:57:49.975Z,15.87
2018-04-23T14:00:18.366Z,11.73
2018-04-23T14:02:46.746Z,17.17
2018-04-23T14:05:15.111Z,9.97
2018-04-23T14:07:43.429Z,22.90
2018-04-23T14:10:11.804Z,10.73
2018-04-23T14:12:40.151Z,12.70
2018-04-23T14:15:08.485Z,19.93
2018-04-23T14:17:36.862Z,12.53
2018-04-23T14:20:05.199Z,12.43
2018-04-23T14:22:33.642Z,14.97
2018-04-23T14:25:02.030Z,10.23
2018-04-23T14:27:30.379Z,10.97
2018-04-23T14:29:58.769Z,15.23
2018-04-23T14:32:27.126Z,14.73
2018-04-23T14:34:55.470Z,12.37
2018-04-23T14:37:23.869Z,15.70
2018-04-23T14:39:52.210Z,15.20
2018-04-23T14:42:20.569Z,15.20
2018-04-23T14:44:48.931Z,10.70
2018-04-23T14:47:17.288Z,12.10
2018-04-23T14:49:45.621Z,10.30
2018-04-23T14:52:13.985Z,10.67
2018-04-23T14:54:42.343Z,14.07
2018-04-23T14:57:10.727Z,15.27
2018-04-23T14:59:39.558Z,8.07
2018-04-23T15:02:07.927Z,10.47
2018-04-23T15:04:36.262Z,31.10
2018-04-23T15:07:04.815Z,18.13
2018-04-23T15:09:33.196Z,13.03
2018-04-23T15:12:01.516Z,13.20
2018-04-23T15:14:34.890Z,12.43
2018-04-23T15:17:03.255Z,15.97
2018-04-23T15:19:31.599Z,15.40
2018-04-23T15:21:59.960Z,15.63
2018-04-23T15:24:28.351Z,15.13
2018-04-23T15:26:56.679Z,17.07
2018-04-23T15:29:25.015Z,18.00
2018-04-23T15:31:53.361Z,19.53
2018-04-23T15:34:21.796Z,16.70
2018-04-23T15:36:50.436Z,17.80
2018-04-23T15:39:18.779Z,15.73
2018-04-23T15:41:47.127Z,15.67
2018-04-23T15:44:15.464Z,19.43
2018-04-23T15:46:43.823Z,22.13
2018-04-23T15:49:12.188Z,20.40
2018-04-23T15:51:40.574Z,20.13
2018-04-23T15:54:11.740Z,20.13
2018-04-23T15:56:40.098Z,18.97
2018-04-23T15:59:08.444Z,17.37
2018-04-23T16:01:36.795Z,18.73
2018-04-23T16:04:05.155Z,25.77
2018-04-23T16:06:33.524Z,21.20
2018-04-23T16:09:01.905Z,17.43
2018-04-23T16:11:30.232Z,20.53
2018-04-23T16:13:58.644Z,19.27
2018-04-23T16:16:27.042Z,20.37
2018-04-23T16:18:55.413Z,18.23
2018-04-23T16:21:23.869Z,19.80
2018-04-23T16:23:52.266Z,21.93
2018-04-23T16:26:21.499Z,21.13
2018-04-23T16:28:49.836Z,19.53
2018-04-23T16:31:18.185Z,19.83
2018-04-23T16:33:46.519Z,18.17
2018-04-23T16:36:14.860Z,28.07
2018-04-23T16:38:43.197Z,20.60
2018-04-23T16:41:11.591Z,22.70
2018-04-23T16:43:39.959Z,21.23
2018-04-23T16:46:08.468Z,19.83
2018-04-23T16:48:36.828Z,19.03
2018-04-23T16:51:05.167Z,20.13
2018-04-23T16:53:33.569Z,26.10
2018-04-23T16:56:01.903Z,21.17
2018-04-23T16:58:30.286Z,20.93
2018-04-23T17:00:58.638Z,23.80
2018-04-23T17:03:27.009Z,23.10
2018-04-23T17:05:55.388Z,26.00
2018-04-23T17:08:23.787Z,22.10
2018-04-23T17:10:53.019Z,21.43
2018-04-23T17:13:21.417Z,21.33
2018-04-23T17:15:49.777Z,22.77
2018-04-23T17:18:18.854Z,22.87
2018-04-23T17:20:47.209Z,21.77
2018-04-23T17:23:15.643Z,23.47
2018-04-23T17:25:44.028Z,24.17
2018-04-23T17:28:12.554Z,30.00
2018-04-23T17:30:40.921Z,25.03
2018-04-23T17:33:09.273Z,25.60
2018-04-23T17:35:37.604Z,25.77
2018-04-23T17:38:06.066Z,27.37
2018-04-23T17:40:34.435Z,26.97
2018-04-23T17:43:02.824Z,25.50
2018-04-23T17:45:31.240Z,25.37
2018-04-23T17:47:59.597Z,28.30
2018-04-23T17:50:27.950Z,22.13
2018-04-23T17:52:56.286Z,25.20
2018-04-23T17:55:24.700Z,23.03
2018-04-23T17:57:53.081Z,25.47
2018-04-23T18:00:21.474Z,24.93
2018-04-23T18:02:50.602Z,24.93
2018-04-23T18:05:19.022Z,25.57
2018-04-23T18:07:47.418Z,24.73
2018-04-23T18:10:15.782Z,26.50
2018-04-23T18:12:44.263Z,24.20
2018-04-23T18:15:12.731Z,23.73
2018-04-23T18:17:41.136Z,25.43
2018-04-23T18:20:09.447Z,26.57
2018-04-23T18:22:37.799Z,26.33
2018-04-23T18:25:06.192Z,25.73
2018-04-23T18:27:34.550Z,25.13
2018-04-23T18:30:02.897Z,29.17
2018-04-23T18:32:31.288Z,29.13
2018-04-23T18:34:59.669Z,29.67
2018-04-23T18:37:27.991Z,28.30
2018-04-23T18:39:56.450Z,26.57
2018-04-23T18:42:24.840Z,30.07
2018-04-23T18:44:53.199Z,29.93
2018-04-23T18:47:22.037Z,30.33
2018-04-23T18:49:50.455Z,27.50
2018-04-23T18:52:18.820Z,29.20
2018-04-23T18:54:47.196Z,29.53
2018-04-23T18:57:15.587Z,30.13
2018-04-23T18:59:43.973Z,28.57
2018-04-23T19:02:12.355Z,34.37
2018-04-23T19:04:40.709Z,28.80
2018-04-23T19:07:09.074Z,28.53
2018-04-23T19:09:37.447Z,28.83
2018-04-23T19:12:06.368Z,28.67
2018-04-23T19:14:35.044Z,30.33
2018-04-23T19:17:03.514Z,31.70
2018-04-23T19:19:31.924Z,31.60
2018-04-23T19:22:00.388Z,29.97
2018-04-23T19:24:28.787Z,28.67
2018-04-23T19:26:57.144Z,29.97
2018-04-23T19:29:25.678Z,29.70
2018-04-23T19:31:54.004Z,30.43
2018-04-23T19:34:22.413Z,28.20
2018-04-23T19:36:51.188Z,29.13
2018-04-23T19:39:19.547Z,30.10
2018-04-23T19:41:48.085Z,29.13
2018-04-23T19:44:16.457Z,29.10
2018-04-23T19:46:44.845Z,30.47
2018-04-23T19:49:13.200Z,29.67
2018-04-23T19:51:41.615Z,30.97
2018-04-23T19:54:09.993Z,32.53
2018-04-23T19:56:38.605Z,33.87
2018-04-23T19:59:06.953Z,31.40
2018-04-23T20:01:35.431Z,30.87
2018-04-23T20:04:04.644Z,32.57
2018-04-23T20:06:33.037Z,32.27
2018-04-23T20:09:01.406Z,29.97
2018-04-23T20:11:29.778Z,30.23
2018-04-23T20:13:58.132Z,31.80
2018-04-23T20:16:26.524Z,32.67
2018-04-23T20:18:54.884Z,45.57
2018-04-23T20:21:23.219Z,33.60
2018-04-23T20:23:51.660Z,31.60
2018-04-23T20:26:20.037Z,33.03
2018-04-23T20:28:48.395Z,30.70
2018-04-23T20:33:50.881Z,33.40
2018-04-23T20:36:19.223Z,33.23
2018-04-23T20:38:47.567Z,33.87
2018-04-23T20:41:15.953Z,32.67
2018-04-23T20:43:44.324Z,32.70
2018-04-23T20:46:12.718Z,32.57
2018-04-23T20:48:41.113Z,32.33
2018-04-23T20:51:09.532Z,33.23
2018-04-23T20:53:37.894Z,33.73
2018-04-23T20:56:06.304Z,35.30
2018-04-23T20:58:34.676Z,31.80
2018-04-23T21:01:03.050Z,33.10
2018-04-23T21:03:53.814Z,33.00
2018-04-23T21:06:26.637Z,28.87
2018-04-23T21:08:55.024Z,29.47
2018-04-23T21:11:23.385Z,26.97
2018-04-23T21:13:51.808Z,26.83
2018-04-23T21:16:20.947Z,29.27
2018-04-23T21:18:49.373Z,30.20
2018-04-23T21:21:17.726Z,29.77
2018-04-23T21:23:46.107Z,30.37
2018-04-23T21:26:14.461Z,29.50
2018-04-23T21:28:42.934Z,29.80
2018-04-23T21:31:11.270Z,26.93
2018-04-23T21:33:39.718Z,28.53
2018-04-23T21:36:08.084Z,28.73
2018-04-23T21:38:36.446Z,31.63
2018-04-23T21:41:04.775Z,30.60
2018-04-23T21:43:33.197Z,28.70
2018-04-23T21:46:01.535Z,27.73
2018-04-23T21:48:29.908Z,29.23
2018-04-23T21:50:58.284Z,31.97
2018-04-23T21:53:26.677Z,30.03
2018-04-23T21:55:55.052Z,29.50
2018-04-23T21:58:23.801Z,29.90
2018-04-23T22:00:52.168Z,30.30
2018-04-23T22:03:20.536Z,29.33
2018-04-23T22:05:48.912Z,29.53
2018-04-23T22:08:17.294Z,29.63
2018-04-23T22:10:45.709Z,27.63
2018-04-23T22:13:14.080Z,30.07
2018-04-23T22:15:42.453Z,27.97
2018-04-23T22:18:10.821Z,28.50
2018-04-23T22:20:39.233Z,29.87
2018-04-23T22:23:07.556Z,31.07
2018-04-23T22:25:35.966Z,29.87
2018-04-23T22:28:04.329Z,36.00
2018-04-23T22:30:32.695Z,29.83
2018-04-23T22:33:01.050Z,29.00
2018-04-23T22:35:29.424Z,28.73
2018-04-23T22:37:57.879Z,31.40
2018-04-23T22:40:26.146Z,28.10
2018-04-23T22:42:54.518Z,30.83
2018-04-23T22:45:22.943Z,31.43
2018-04-23T22:47:51.287Z,29.67
2018-04-23T22:50:19.656Z,29.17
2018-04-23T22:52:48.074Z,28.97
2018-04-23T22:55:16.461Z,30.07
2018-04-23T22:57:45.678Z,29.27
2018-04-23T23:00:14.005Z,32.00
2018-04-23T23:02:42.508Z,30.47
2018-04-23T23:05:10.865Z,31.40
2018-04-23T23:07:48.450Z,29.57
2018-04-23T23:10:18.953Z,31.10
2018-04-23T23:12:49.031Z,30.23
2018-04-23T23:15:17.363Z,29.97
2018-04-23T23:17:45.721Z,31.37
2018-04-23T23:20:14.128Z,30.10
2018-04-23T23:22:42.506Z,31.27
2018-04-23T23:25:10.871Z,31.33
2018-04-23T23:27:39.272Z,29.60
2018-04-23T23:30:07.628Z,30.73
2018-04-23T23:32:36.039Z,30.57
2018-04-23T23:35:04.393Z,31.87
2018-04-23T23:37:32.764Z,31.23
2018-04-23T23:40:01.226Z,30.53
2018-04-23T23:42:29.563Z,30.33
2018-04-23T23:44:57.948Z,32.13
2018-04-23T23:47:26.295Z,29.93
2018-04-23T23:49:54.724Z,31.23
2018-04-23T23:52:23.099Z,29.07
2018-04-23T23:54:51.488Z,31.17
2018-04-23T23:57:19.844Z,31.93
2018-04-23T23:59:48.276Z,32.10
